Terminal Aerodrome Forecast
Issued by NWS

Home | Current Version | Previous Version | Text Only | Print | Product List | Glossary On
Versions: 1 2 3 4 5 6 7 8 9 10 11 12 13 14 15 16 17 18 19 20 21 22 23 24 25 26 27 28 29 30 31 32 33
000
FTUS43 KDVN 282337
TAFCID
TAF
KCID 282337Z 2900/2924 35007KT 6SM BR VCSH BKN020 OVC040
      TEMPO 2900/2903 3SM -RA BR BKN009 OVC018
     FM290300 36007KT 2SM BR OVC005
     FM291400 04007KT 5SM BR BKN015
     FM291600 07008KT P6SM BKN025=

USA.gov is the U.S. government's official web portal to all federal, state and local government web resources and services.